createdAt,value
2022-07-29T00:01:44.535Z,71.69
2022-07-29T00:04:13.533Z,71.98
2022-07-29T00:06:42.711Z,72.13
2022-07-29T00:09:11.295Z,72.19
2022-07-29T00:11:39.443Z,72.28
2022-07-29T00:14:08.152Z,72.17
2022-07-29T00:16:37.072Z,72.24
2022-07-29T00:19:05.829Z,72.33
2022-07-29T00:21:35.641Z,72.46
2022-07-29T00:24:04.687Z,72.34
2022-07-29T00:26:33.523Z,72.33
2022-07-29T00:29:32.342Z,72.39
2022-07-29T00:31:52.139Z,72.41
2022-07-29T00:34:39.042Z,72.35
2022-07-29T00:37:07.848Z,72.27
2022-07-29T00:39:35.970Z,72.02
2022-07-29T00:42:06.325Z,71.84
2022-07-29T00:44:39.584Z,71.56
2022-07-29T00:47:08.704Z,71.42
2022-07-29T00:49:40.575Z,71.45
2022-07-29T00:52:10.920Z,71.20
2022-07-29T00:54:44.464Z,70.92
2022-07-29T00:57:14.050Z,70.96
2022-07-29T00:59:42.833Z,70.94
2022-07-29T01:02:11.487Z,70.65
2022-07-29T01:04:40.789Z,70.45
2022-07-29T01:07:09.099Z,70.41
2022-07-29T01:09:46.251Z,70.24
2022-07-29T01:12:20.294Z,70.07
2022-07-29T01:14:50.329Z,69.93
2022-07-29T01:17:23.600Z,69.61
2022-07-29T01:20:05.129Z,69.44
2022-07-29T01:22:35.957Z,69.58
2022-07-29T01:25:14.123Z,69.35
2022-07-29T01:27:53.566Z,69.33
2022-07-29T01:30:26.110Z,69.36
2022-07-29T01:33:35.266Z,69.44
2022-07-29T01:36:09.199Z,69.59
2022-07-29T01:38:40.827Z,69.67
2022-07-29T01:41:15.992Z,69.83
2022-07-29T01:43:58.712Z,69.94
2022-07-29T01:46:37.477Z,70.00
2022-07-29T01:49:23.250Z,69.97
2022-07-29T01:52:01.983Z,69.80
2022-07-29T01:54:39.107Z,69.75
2022-07-29T01:57:11.070Z,69.91
2022-07-29T01:59:42.233Z,70.09
2022-07-29T02:02:13.435Z,70.16
2022-07-29T02:04:44.471Z,70.30
2022-07-29T02:07:16.941Z,70.37
2022-07-29T02:09:47.050Z,70.40
2022-07-29T02:12:18.326Z,70.62
2022-07-29T02:14:50.147Z,70.69
2022-07-29T02:17:25.001Z,70.87
2022-07-29T02:19:57.621Z,70.91
2022-07-29T02:22:29.853Z,70.58
2022-07-29T02:25:00.101Z,70.73
2022-07-29T02:27:30.370Z,70.75
2022-07-29T02:30:01.870Z,70.87
2022-07-29T02:32:32.379Z,70.81
2022-07-29T02:35:02.804Z,70.57
2022-07-29T02:37:34.447Z,70.54
2022-07-29T02:40:04.292Z,70.54
2022-07-29T02:42:34.210Z,70.40
2022-07-29T02:45:01.961Z,70.34
2022-07-29T02:47:48.499Z,70.30
2022-07-29T02:50:33.960Z,70.26
2022-07-29T02:53:17.567Z,70.13
2022-07-29T02:55:52.036Z,70.19
2022-07-29T02:58:29.789Z,70.07
2022-07-29T03:01:21.345Z,70.21
2022-07-29T03:03:54.677Z,70.26
2022-07-29T03:06:28.767Z,70.29
2022-07-29T03:09:13.287Z,70.32
2022-07-29T03:11:49.598Z,70.27
2022-07-29T03:14:21.394Z,70.29
2022-07-29T03:16:51.930Z,70.18
2022-07-29T03:19:21.640Z,70.21
2022-07-29T03:21:49.657Z,70.09
2022-07-29T03:24:33.301Z,69.91
2022-07-29T03:27:01.355Z,69.96
2022-07-29T03:29:33.119Z,69.99
2022-07-29T03:32:08.246Z,69.84
2022-07-29T03:34:39.117Z,69.86
2022-07-29T03:37:08.528Z,69.83
2022-07-29T03:39:42.060Z,69.89
2022-07-29T03:42:13.932Z,69.97
2022-07-29T03:44:45.669Z,69.97
2022-07-29T03:47:19.085Z,70.04
2022-07-29T03:49:53.568Z,70.05
2022-07-29T03:52:22.482Z,69.75
2022-07-29T03:54:50.722Z,69.71
2022-07-29T03:57:21.394Z,69.76
2022-07-29T03:59:53.171Z,69.73
2022-07-29T04:02:28.729Z,69.65
2022-07-29T04:04:59.249Z,69.61
2022-07-29T04:07:27.451Z,69.66
2022-07-29T04:09:55.814Z,69.72
2022-07-29T04:12:23.783Z,69.54
2022-07-29T04:14:51.599Z,69.49
2022-07-29T04:17:19.335Z,69.63
2022-07-29T04:19:47.457Z,69.68
2022-07-29T04:22:15.453Z,69.66
2022-07-29T04:24:44.547Z,69.44
2022-07-29T04:27:12.981Z,69.19
2022-07-29T04:29:56.554Z,68.88
2022-07-29T04:32:27.859Z,68.61
2022-07-29T04:34:55.589Z,68.42
2022-07-29T04:37:23.524Z,68.11
2022-07-29T04:39:51.955Z,68.01
2022-07-29T04:42:25.199Z,67.80
2022-07-29T04:44:55.846Z,67.72
2022-07-29T04:47:24.766Z,67.63
2022-07-29T04:49:53.009Z,67.24
2022-07-29T04:52:21.151Z,67.05
2022-07-29T04:54:50.096Z,66.68
2022-07-29T04:57:18.116Z,66.41
2022-07-29T04:59:46.187Z,66.25
2022-07-29T05:02:14.542Z,66.08
2022-07-29T05:04:44.949Z,65.99
2022-07-29T05:07:13.117Z,66.09
2022-07-29T05:09:41.447Z,66.22
2022-07-29T05:12:09.692Z,66.16
2022-07-29T05:14:37.783Z,66.19
2022-07-29T05:17:06.367Z,66.22
2022-07-29T05:19:34.438Z,66.20
2022-07-29T05:22:07.619Z,66.09
2022-07-29T05:24:35.402Z,65.98
2022-07-29T05:27:03.114Z,65.66
2022-07-29T05:29:43.907Z,65.66
2022-07-29T05:32:14.734Z,65.69
2022-07-29T05:34:50.834Z,65.74
2022-07-29T05:37:21.484Z,65.63
2022-07-29T05:39:56.204Z,65.40
2022-07-29T05:42:27.030Z,64.57
2022-07-29T05:44:55.086Z,64.44
2022-07-29T05:47:24.495Z,64.19
2022-07-29T05:49:52.795Z,64.03
2022-07-29T05:52:22.146Z,63.30
2022-07-29T05:54:50.157Z,63.52
2022-07-29T05:57:20.065Z,63.45
2022-07-29T05:59:49.198Z,63.55
2022-07-29T06:02:18.059Z,63.22
2022-07-29T06:04:46.631Z,63.21
2022-07-29T06:07:14.389Z,62.75
2022-07-29T06:09:42.370Z,62.58
2022-07-29T06:12:10.714Z,61.99
2022-07-29T06:14:39.622Z,61.97
2022-07-29T06:17:07.679Z,61.46
2022-07-29T06:19:36.786Z,61.09
2022-07-29T06:22:04.884Z,60.68
2022-07-29T06:24:32.918Z,60.99
2022-07-29T06:27:00.881Z,60.72
2022-07-29T06:29:29.064Z,60.75
2022-07-29T06:31:58.034Z,60.88
2022-07-29T06:34:27.175Z,60.70
2022-07-29T06:36:55.531Z,59.94
2022-07-29T06:39:24.729Z,60.02
2022-07-29T06:41:53.036Z,59.66
2022-07-29T06:44:21.124Z,59.48
2022-07-29T06:46:51.384Z,59.55
2022-07-29T06:49:19.365Z,59.16
2022-07-29T06:51:47.663Z,58.78
2022-07-29T06:54:16.265Z,58.57
2022-07-29T06:56:45.217Z,58.65
2022-07-29T06:59:14.476Z,58.60
2022-07-29T07:01:44.647Z,58.03
2022-07-29T07:04:13.893Z,58.20
2022-07-29T07:06:42.214Z,57.86
2022-07-29T07:09:10.503Z,57.65
2022-07-29T07:11:38.866Z,57.38
2022-07-29T07:14:06.856Z,56.21
2022-07-29T07:16:37.552Z,55.61
2022-07-29T07:19:05.563Z,54.18
2022-07-29T07:21:34.661Z,53.74
2022-07-29T07:24:04.581Z,52.41
2022-07-29T07:26:33.142Z,51.23
2022-07-29T07:29:01.674Z,49.70
2022-07-29T07:31:29.494Z,47.72
2022-07-29T07:33:58.606Z,45.21
2022-07-29T07:36:26.569Z,44.78
2022-07-29T07:38:54.540Z,45.35
2022-07-29T07:41:23.677Z,44.97
2022-07-29T07:43:51.775Z,44.58
2022-07-29T07:46:20.481Z,42.08
2022-07-29T07:48:48.899Z,40.81
2022-07-29T07:51:17.011Z,39.54
2022-07-29T07:53:45.992Z,36.69
2022-07-29T07:56:14.057Z,34.80
2022-07-29T07:58:42.148Z,33.14
2022-07-29T08:01:11.115Z,32.52
2022-07-29T08:03:40.177Z,31.84
2022-07-29T08:06:08.307Z,29.80
2022-07-29T08:08:36.820Z,29.04
2022-07-29T08:11:09.416Z,29.37
2022-07-29T08:13:39.606Z,28.64
2022-07-29T08:16:16.834Z,27.24
2022-07-29T08:18:47.063Z,25.81
2022-07-29T08:21:16.725Z,25.59
2022-07-29T08:24:15.898Z,25.10
2022-07-29T08:26:45.006Z,25.70
2022-07-29T08:29:18.374Z,27.05
2022-07-29T08:31:48.775Z,27.49
2022-07-29T08:34:16.824Z,28.25
2022-07-29T08:36:44.548Z,29.03
2022-07-29T08:39:18.859Z,29.58
2022-07-29T08:41:57.193Z,26.83
2022-07-29T08:44:31.040Z,26.15
2022-07-29T08:47:00.411Z,26.17
2022-07-29T08:49:28.521Z,25.17
2022-07-29T08:51:58.561Z,27.00
2022-07-29T08:54:28.631Z,23.86
2022-07-29T08:56:58.768Z,22.77
2022-07-29T08:59:29.738Z,22.97
2022-07-29T09:02:01.513Z,22.94
2022-07-29T09:04:35.624Z,23.60
2022-07-29T09:07:07.057Z,23.16
2022-07-29T09:09:36.036Z,22.31
2022-07-29T09:12:05.269Z,22.77
2022-07-29T09:14:34.354Z,22.45
2022-07-29T09:17:02.622Z,23.04
2022-07-29T09:19:45.431Z,22.79
2022-07-29T09:22:32.993Z,23.82
2022-07-29T09:25:00.942Z,22.91
2022-07-29T09:27:32.176Z,23.48
2022-07-29T09:30:07.195Z,23.23
2022-07-29T09:32:56.788Z,22.47
2022-07-29T09:35:28.948Z,21.96
2022-07-29T09:38:11.618Z,22.02
2022-07-29T09:40:41.236Z,21.98
2022-07-29T09:43:13.659Z,22.20
2022-07-29T09:45:43.287Z,22.88
2022-07-29T09:48:21.043Z,24.19
2022-07-29T09:50:52.100Z,24.96
2022-07-29T09:53:34.705Z,25.17
2022-07-29T09:56:07.361Z,26.77
2022-07-29T09:58:37.513Z,26.55
2022-07-29T10:01:07.659Z,26.88
2022-07-29T10:03:54.198Z,27.66
2022-07-29T10:06:21.988Z,27.86
2022-07-29T10:08:55.122Z,28.77
2022-07-29T10:11:22.963Z,29.80
2022-07-29T10:13:50.764Z,30.28
2022-07-29T10:16:21.214Z,31.13
2022-07-29T10:18:49.150Z,31.80
2022-07-29T10:21:34.871Z,32.24
2022-07-29T10:24:15.094Z,32.90
2022-07-29T10:26:49.066Z,33.53
2022-07-29T10:29:19.187Z,33.97
2022-07-29T10:32:13.607Z,34.75
2022-07-29T10:35:03.125Z,34.88
2022-07-29T10:37:45.736Z,35.64
2022-07-29T10:40:58.053Z,35.76
2022-07-29T10:43:37.123Z,36.55
2022-07-29T10:46:07.349Z,37.38
2022-07-29T10:49:11.504Z,37.28
2022-07-29T10:54:56.923Z,37.34
2022-07-29T10:57:54.209Z,37.78
2022-07-29T11:00:31.856Z,38.02
2022-07-29T11:03:04.693Z,38.50
2022-07-29T11:05:56.554Z,38.58
2022-07-29T11:08:34.177Z,39.16
2022-07-29T11:11:36.971Z,39.51
2022-07-29T11:14:05.557Z,39.59
2022-07-29T11:17:09.254Z,40.35
2022-07-29T11:19:51.142Z,40.20
2022-07-29T11:22:43.132Z,40.30
2022-07-29T11:25:42.851Z,40.41
2022-07-29T11:28:25.124Z,40.67
2022-07-29T11:30:58.085Z,40.53
2022-07-29T11:33:54.356Z,41.19
2022-07-29T11:36:28.332Z,41.18
2022-07-29T11:39:36.772Z,41.29
2022-07-29T11:42:32.401Z,41.03
2022-07-29T11:45:44.360Z,41.17
2022-07-29T11:48:28.798Z,40.95
2022-07-29T11:50:52.081Z,41.67
2022-07-29T11:53:24.483Z,41.49
2022-07-29T11:55:59.843Z,41.58
2022-07-29T11:58:32.771Z,41.63
2022-07-29T12:01:04.801Z,42.53
2022-07-29T12:03:36.921Z,42.16
2022-07-29T12:06:13.993Z,42.46
2022-07-29T12:08:44.795Z,42.59
2022-07-29T12:11:22.615Z,42.39
2022-07-29T12:13:56.194Z,42.64
2022-07-29T12:16:29.427Z,43.08
2022-07-29T12:19:04.181Z,43.99
2022-07-29T12:21:56.456Z,44.50
2022-07-29T12:24:29.474Z,43.67
2022-07-29T12:27:00.827Z,43.22
2022-07-29T12:29:34.814Z,43.17
2022-07-29T12:32:15.065Z,43.13
2022-07-29T12:34:52.160Z,43.22
2022-07-29T12:37:20.654Z,43.52
2022-07-29T12:40:13.671Z,43.67
2022-07-29T12:42:43.646Z,43.79
2022-07-29T12:45:14.388Z,44.32
2022-07-29T12:47:54.909Z,43.49
2022-07-29T12:50:26.555Z,43.34
2022-07-29T12:52:56.176Z,43.46
2022-07-29T12:55:50.095Z,43.81
2022-07-29T12:58:41.869Z,44.06
2022-07-29T13:01:21.092Z,44.06
2022-07-29T13:04:03.792Z,44.27
2022-07-29T13:06:49.677Z,44.23
2022-07-29T13:09:27.543Z,44.45
2022-07-29T13:11:55.499Z,44.53
2022-07-29T13:14:40.100Z,44.63
2022-07-29T13:17:11.286Z,45.13
2022-07-29T13:19:42.852Z,45.43
2022-07-29T13:22:16.428Z,45.63
2022-07-29T13:24:54.422Z,45.15
2022-07-29T13:27:26.205Z,45.50
2022-07-29T13:29:58.641Z,45.78
2022-07-29T13:32:31.293Z,45.80
2022-07-29T13:35:05.351Z,45.81
2022-07-29T13:37:39.097Z,45.61
2022-07-29T13:40:12.642Z,45.19
2022-07-29T13:42:43.177Z,44.93
2022-07-29T13:45:13.859Z,45.31
2022-07-29T13:47:49.270Z,45.26
2022-07-29T13:50:19.331Z,46.11
2022-07-29T13:52:51.044Z,45.46
2022-07-29T13:55:21.162Z,44.84
2022-07-29T13:57:51.281Z,45.02
2022-07-29T14:00:22.323Z,44.55
2022-07-29T14:02:53.247Z,44.84
2022-07-29T14:05:23.277Z,45.03
2022-07-29T14:07:53.294Z,44.57
2022-07-29T14:10:21.308Z,45.30
2022-07-29T14:12:49.256Z,45.33
2022-07-29T14:15:17.189Z,44.32
2022-07-29T14:17:44.901Z,44.38
2022-07-29T14:20:12.642Z,43.45
2022-07-29T14:22:42.609Z,44.49
2022-07-29T14:25:15.000Z,44.15
2022-07-29T14:27:45.631Z,44.00
2022-07-29T14:30:16.102Z,44.20
2022-07-29T14:32:45.885Z,44.41
2022-07-29T14:35:18.356Z,44.37
2022-07-29T14:37:46.026Z,44.94
2022-07-29T14:40:16.036Z,45.48
2022-07-29T14:42:46.050Z,45.07
2022-07-29T14:45:14.773Z,44.95
2022-07-29T14:47:44.525Z,45.12
2022-07-29T14:50:14.639Z,44.82
2022-07-29T14:52:42.707Z,44.78
2022-07-29T14:55:19.402Z,44.45
2022-07-29T14:58:03.061Z,44.37
2022-07-29T15:00:40.434Z,44.37
2022-07-29T15:03:13.241Z,44.07
2022-07-29T15:05:55.654Z,44.26
2022-07-29T15:08:26.457Z,43.73
2022-07-29T15:10:54.394Z,44.10
2022-07-29T15:13:24.629Z,44.09
2022-07-29T15:15:54.869Z,43.89
2022-07-29T15:18:26.013Z,44.08
2022-07-29T15:20:57.800Z,44.09
2022-07-29T15:23:26.635Z,44.18
2022-07-29T15:25:54.421Z,44.20
2022-07-29T15:28:24.141Z,44.28
2022-07-29T15:30:53.887Z,44.19
2022-07-29T15:33:23.688Z,43.98
2022-07-29T15:35:51.519Z,44.18
2022-07-29T15:38:19.336Z,44.10
2022-07-29T15:40:49.801Z,43.87
2022-07-29T15:43:17.672Z,43.92
2022-07-29T15:46:05.502Z,43.59
2022-07-29T15:48:33.917Z,43.79
2022-07-29T15:51:02.165Z,43.92
2022-07-29T15:53:30.473Z,43.90
2022-07-29T15:55:58.346Z,43.91
2022-07-29T15:58:28.297Z,43.81
2022-07-29T16:00:57.724Z,43.86
2022-07-29T16:03:27.872Z,43.84
2022-07-29T16:05:55.733Z,43.90
2022-07-29T16:08:23.440Z,43.96
2022-07-29T16:10:53.522Z,44.14
2022-07-29T16:13:21.572Z,44.09
2022-07-29T16:16:02.874Z,44.19
2022-07-29T16:18:34.636Z,44.23
2022-07-29T16:21:07.587Z,44.31
2022-07-29T16:23:35.334Z,44.45
2022-07-29T16:26:03.045Z,44.42
2022-07-29T16:28:31.992Z,44.38
2022-07-29T16:31:02.359Z,44.44
2022-07-29T16:33:53.625Z,44.41
2022-07-29T16:36:20.590Z,44.48
2022-07-29T16:38:49.365Z,44.44
2022-07-29T16:41:19.098Z,44.62
2022-07-29T16:43:49.285Z,44.89
2022-07-29T16:46:18.930Z,45.02
2022-07-29T16:48:48.551Z,45.22
2022-07-29T16:51:17.117Z,45.51
2022-07-29T16:53:45.432Z,46.30
2022-07-29T16:56:18.115Z,46.58
2022-07-29T16:58:46.071Z,46.46
2022-07-29T17:01:14.680Z,46.70
2022-07-29T17:04:01.492Z,46.95
2022-07-29T17:06:29.542Z,47.27
2022-07-29T17:09:01.359Z,47.50
2022-07-29T17:11:53.424Z,47.80
2022-07-29T17:14:27.203Z,47.91
2022-07-29T17:17:02.263Z,47.74
2022-07-29T17:19:35.347Z,48.09
2022-07-29T17:22:14.086Z,48.35
2022-07-29T17:24:48.267Z,48.81
2022-07-29T17:27:19.786Z,49.17
2022-07-29T17:29:47.550Z,49.04
2022-07-29T17:32:19.913Z,49.03
2022-07-29T17:34:48.023Z,49.17
2022-07-29T17:37:16.348Z,49.28
2022-07-29T17:39:44.525Z,49.43
2022-07-29T17:42:14.787Z,49.46
2022-07-29T17:44:42.651Z,49.54
2022-07-29T17:47:16.041Z,49.61
2022-07-29T17:49:45.676Z,49.88
2022-07-29T17:52:13.821Z,50.03
2022-07-29T17:54:41.689Z,49.97
2022-07-29T17:57:09.559Z,50.16
2022-07-29T17:59:37.270Z,50.57
2022-07-29T18:02:05.498Z,51.24
2022-07-29T18:04:33.870Z,51.01
2022-07-29T18:07:02.017Z,51.10
2022-07-29T18:09:30.124Z,52.41
2022-07-29T18:11:58.154Z,51.76
2022-07-29T18:14:26.271Z,51.70
2022-07-29T18:16:54.430Z,51.64
2022-07-29T18:19:22.699Z,51.80
2022-07-29T18:21:54.615Z,51.98
2022-07-29T18:24:25.868Z,52.00
2022-07-29T18:26:54.103Z,52.55
2022-07-29T18:29:22.291Z,52.57
2022-07-29T18:31:50.316Z,52.59
2022-07-29T18:34:18.299Z,52.57
2022-07-29T18:36:46.374Z,52.73
2022-07-29T18:39:20.485Z,52.74
2022-07-29T18:41:51.514Z,52.91
2022-07-29T18:44:21.959Z,52.86
2022-07-29T18:46:52.131Z,52.90
2022-07-29T18:49:20.165Z,52.97
2022-07-29T18:51:49.717Z,52.86
2022-07-29T18:54:18.144Z,52.92
2022-07-29T18:56:47.065Z,53.07
2022-07-29T18:59:17.136Z,53.13
2022-07-29T19:01:45.647Z,53.12
2022-07-29T19:04:13.522Z,53.38
2022-07-29T19:06:41.368Z,53.31
2022-07-29T19:09:09.122Z,53.34
2022-07-29T19:11:38.249Z,53.41
2022-07-29T19:14:06.387Z,53.49
2022-07-29T19:16:34.501Z,53.68
2022-07-29T19:19:02.880Z,53.65
2022-07-29T19:21:31.278Z,53.71
2022-07-29T19:24:04.247Z,53.81
2022-07-29T19:26:36.747Z,53.92
2022-07-29T19:29:05.791Z,53.97
2022-07-29T19:31:34.440Z,54.06
2022-07-29T19:34:02.291Z,54.46
2022-07-29T19:36:31.431Z,54.47
2022-07-29T19:39:00.602Z,54.42
2022-07-29T19:41:28.535Z,54.51
2022-07-29T19:43:56.360Z,54.67
2022-07-29T19:46:25.079Z,54.90
2022-07-29T19:48:53.609Z,55.11
2022-07-29T19:51:22.928Z,55.10
2022-07-29T19:53:51.594Z,55.21
2022-07-29T19:56:19.591Z,55.22
2022-07-29T19:58:48.414Z,55.28
2022-07-29T20:01:16.858Z,55.33
2022-07-29T20:03:45.094Z,55.75
2022-07-29T20:06:13.331Z,55.78
2022-07-29T20:08:41.051Z,56.05
2022-07-29T20:11:08.817Z,56.20
2022-07-29T20:13:36.698Z,56.30
2022-07-29T20:16:06.497Z,56.53
2022-07-29T20:18:34.850Z,56.41
2022-07-29T20:21:04.861Z,56.35
2022-07-29T20:23:33.468Z,56.64
2022-07-29T20:26:02.864Z,56.80
2022-07-29T20:28:31.293Z,56.76
2022-07-29T20:30:59.077Z,56.92
2022-07-29T20:33:26.852Z,57.07
2022-07-29T20:35:54.875Z,57.17
2022-07-29T20:38:22.665Z,57.45
2022-07-29T20:40:50.992Z,57.76
2022-07-29T20:43:18.763Z,57.76
2022-07-29T20:45:46.493Z,58.03
2022-07-29T20:48:14.254Z,58.26
2022-07-29T20:50:42.897Z,58.29
2022-07-29T20:53:11.593Z,58.36
2022-07-29T20:55:39.339Z,58.27
2022-07-29T20:58:07.080Z,58.44
2022-07-29T21:00:34.958Z,58.50
2022-07-29T21:03:02.840Z,58.54
2022-07-29T21:05:33.052Z,58.52
2022-07-29T21:08:01.178Z,58.56
2022-07-29T21:10:29.582Z,58.53
2022-07-29T21:12:57.335Z,58.64
2022-07-29T21:15:27.211Z,58.77
2022-07-29T21:18:03.149Z,58.83
2022-07-29T21:20:31.239Z,58.86
2022-07-29T21:22:59.060Z,58.90
2022-07-29T21:25:28.504Z,59.11
2022-07-29T21:28:14.813Z,59.19
2022-07-29T21:30:42.544Z,59.16
2022-07-29T21:33:10.432Z,59.09
2022-07-29T21:36:14.905Z,59.03
2022-07-29T21:38:26.091Z,58.89
2022-07-29T21:40:54.224Z,59.10
2022-07-29T21:43:22.787Z,59.27
2022-07-29T21:45:50.657Z,59.44
2022-07-29T21:48:19.753Z,59.53
2022-07-29T21:50:48.172Z,59.59
2022-07-29T21:53:17.067Z,59.71
2022-07-29T21:55:50.718Z,59.76
2022-07-29T21:58:19.040Z,59.61
2022-07-29T22:00:46.888Z,59.69
2022-07-29T22:03:14.931Z,59.68
2022-07-29T22:05:42.720Z,59.70
2022-07-29T22:08:10.577Z,59.57
2022-07-29T22:10:38.381Z,59.76
2022-07-29T22:13:06.656Z,59.95
2022-07-29T22:15:34.581Z,59.86
2022-07-29T22:18:02.343Z,60.07
2022-07-29T22:20:30.175Z,60.39
2022-07-29T22:22:58.014Z,60.35
2022-07-29T22:25:25.757Z,60.62
2022-07-29T22:27:53.523Z,60.73
2022-07-29T22:30:21.334Z,60.82
2022-07-29T22:32:49.710Z,61.08
2022-07-29T22:35:17.810Z,61.10
2022-07-29T22:37:45.622Z,61.61
2022-07-29T22:40:13.419Z,61.31
2022-07-29T22:42:41.171Z,61.91
2022-07-29T22:45:10.642Z,62.12
2022-07-29T22:47:47.881Z,62.75
2022-07-29T22:50:17.231Z,63.01
2022-07-29T22:52:45.939Z,63.20
2022-07-29T22:55:14.810Z,63.51
2022-07-29T22:57:42.783Z,63.95
2022-07-29T23:00:11.348Z,64.19
2022-07-29T23:02:40.400Z,64.57
2022-07-29T23:05:09.070Z,64.66
2022-07-29T23:07:36.937Z,64.76
2022-07-29T23:10:05.092Z,65.08
2022-07-29T23:12:32.804Z,65.28
2022-07-29T23:15:00.563Z,65.41
2022-07-29T23:17:28.735Z,65.52
2022-07-29T23:19:56.536Z,65.53
2022-07-29T23:22:24.826Z,65.82
2022-07-29T23:24:52.548Z,66.00
2022-07-29T23:27:20.230Z,66.22
2022-07-29T23:29:47.934Z,66.26
2022-07-29T23:32:15.778Z,66.39
2022-07-29T23:34:43.677Z,66.54
2022-07-29T23:37:11.713Z,66.70
2022-07-29T23:39:39.423Z,66.78
2022-07-29T23:42:07.219Z,66.81
2022-07-29T23:44:34.986Z,67.00
2022-07-29T23:47:03.169Z,67.09
2022-07-29T23:49:31.153Z,67.14
2022-07-29T23:51:58.870Z,67.24
2022-07-29T23:54:26.557Z,67.26
2022-07-29T23:56:54.321Z,67.41
2022-07-29T23:59:22.046Z,67.53
